sensor_id;sensor_type;location;lat;lon;timestamp;P1;durP1;ratioP1;P2;durP2;ratioP2
64875;SDS011;51369;49.862;9.908;2023-08-06T00:01:11;10.00;;;4.63;;
64875;SDS011;51369;49.862;9.908;2023-08-06T00:03:36;6.22;;;4.55;;
64875;SDS011;51369;49.862;9.908;2023-08-06T00:06:02;4.85;;;4.40;;
64875;SDS011;51369;49.862;9.908;2023-08-06T00:08:29;6.38;;;4.22;;
64875;SDS011;51369;49.862;9.908;2023-08-06T00:10:54;5.70;;;4.35;;
64875;SDS011;51369;49.862;9.908;2023-08-06T00:13:20;6.65;;;4.32;;
64875;SDS011;51369;49.862;9.908;2023-08-06T00:15:45;8.65;;;4.72;;
64875;SDS011;51369;49.862;9.908;2023-08-06T00:18:11;4.97;;;4.47;;
64875;SDS011;51369;49.862;9.908;2023-08-06T00:20:38;5.18;;;4.55;;
64875;SDS011;51369;49.862;9.908;2023-08-06T00:23:04;8.32;;;4.65;;
64875;SDS011;51369;49.862;9.908;2023-08-06T00:25:29;11.35;;;5.07;;
64875;SDS011;51369;49.862;9.908;2023-08-06T00:27:55;10.43;;;4.47;;
64875;SDS011;51369;49.862;9.908;2023-08-06T00:30:21;8.43;;;5.30;;
64875;SDS011;51369;49.862;9.908;2023-08-06T00:32:47;5.80;;;4.60;;
64875;SDS011;51369;49.862;9.908;2023-08-06T00:35:12;4.78;;;4.28;;
64875;SDS011;51369;49.862;9.908;2023-08-06T00:37:39;6.85;;;4.38;;
64875;SDS011;51369;49.862;9.908;2023-08-06T00:40:05;6.63;;;4.50;;
64875;SDS011;51369;49.862;9.908;2023-08-06T00:42:31;8.73;;;4.13;;
64875;SDS011;51369;49.862;9.908;2023-08-06T00:44:57;7.28;;;4.60;;
64875;SDS011;51369;49.862;9.908;2023-08-06T00:47:23;4.32;;;3.92;;
64875;SDS011;51369;49.862;9.908;2023-08-06T00:49:49;5.30;;;4.28;;
64875;SDS011;51369;49.862;9.908;2023-08-06T00:52:15;4.72;;;3.58;;
64875;SDS011;51369;49.862;9.908;2023-08-06T00:54:40;5.20;;;4.57;;
64875;SDS011;51369;49.862;9.908;2023-08-06T00:57:07;10.27;;;5.10;;
64875;SDS011;51369;49.862;9.908;2023-08-06T00:59:33;5.53;;;4.10;;
64875;SDS011;51369;49.862;9.908;2023-08-06T01:01:59;9.52;;;4.10;;
64875;SDS011;51369;49.862;9.908;2023-08-06T01:04:25;4.40;;;3.72;;
64875;SDS011;51369;49.862;9.908;2023-08-06T01:07:37;4.68;;;3.90;;
64875;SDS011;51369;49.862;9.908;2023-08-06T01:10:18;6.53;;;4.10;;
64875;SDS011;51369;49.862;9.908;2023-08-06T01:16:02;8.25;;;3.60;;
64875;SDS011;51369;49.862;9.908;2023-08-06T01:18:30;4.03;;;3.33;;
64875;SDS011;51369;49.862;9.908;2023-08-06T01:20:56;3.97;;;3.42;;
64875;SDS011;51369;49.862;9.908;2023-08-06T01:23:21;5.38;;;3.00;;
64875;SDS011;51369;49.862;9.908;2023-08-06T01:28:50;6.53;;;3.55;;
64875;SDS011;51369;49.862;9.908;2023-08-06T01:31:26;5.72;;;3.35;;
64875;SDS011;51369;49.862;9.908;2023-08-06T01:33:55;6.22;;;2.92;;
64875;SDS011;51369;49.862;9.908;2023-08-06T01:36:23;3.72;;;3.20;;
64875;SDS011;51369;49.862;9.908;2023-08-06T01:38:50;3.72;;;3.42;;
64875;SDS011;51369;49.862;9.908;2023-08-06T01:41:17;6.18;;;2.75;;
64875;SDS011;51369;49.862;9.908;2023-08-06T01:43:42;4.60;;;2.97;;
64875;SDS011;51369;49.862;9.908;2023-08-06T01:46:08;4.88;;;2.88;;
64875;SDS011;51369;49.862;9.908;2023-08-06T01:48:33;4.70;;;2.80;;
64875;SDS011;51369;49.862;9.908;2023-08-06T01:50:59;3.15;;;2.75;;
64875;SDS011;51369;49.862;9.908;2023-08-06T01:53:24;3.63;;;3.10;;
64875;SDS011;51369;49.862;9.908;2023-08-06T01:55:51;4.00;;;3.15;;
64875;SDS011;51369;49.862;9.908;2023-08-06T01:58:17;7.15;;;3.83;;
64875;SDS011;51369;49.862;9.908;2023-08-06T02:00:43;4.38;;;2.85;;
64875;SDS011;51369;49.862;9.908;2023-08-06T02:03:08;4.45;;;2.53;;
64875;SDS011;51369;49.862;9.908;2023-08-06T02:05:33;4.30;;;2.70;;
64875;SDS011;51369;49.862;9.908;2023-08-06T02:07:59;7.03;;;2.65;;
64875;SDS011;51369;49.862;9.908;2023-08-06T02:10:24;3.30;;;3.00;;
64875;SDS011;51369;49.862;9.908;2023-08-06T02:12:50;4.85;;;2.67;;
64875;SDS011;51369;49.862;9.908;2023-08-06T02:15:15;3.25;;;2.95;;
64875;SDS011;51369;49.862;9.908;2023-08-06T02:17:41;3.53;;;2.88;;
64875;SDS011;51369;49.862;9.908;2023-08-06T02:20:06;4.22;;;3.13;;
64875;SDS011;51369;49.862;9.908;2023-08-06T02:22:33;4.35;;;2.85;;
64875;SDS011;51369;49.862;9.908;2023-08-06T02:24:59;4.53;;;2.40;;
64875;SDS011;51369;49.862;9.908;2023-08-06T02:27:24;3.22;;;2.75;;
64875;SDS011;51369;49.862;9.908;2023-08-06T02:29:50;4.20;;;2.63;;
64875;SDS011;51369;49.862;9.908;2023-08-06T02:32:15;4.68;;;2.75;;
64875;SDS011;51369;49.862;9.908;2023-08-06T02:34:40;4.32;;;2.30;;
64875;SDS011;51369;49.862;9.908;2023-08-06T02:37:06;4.05;;;2.40;;
64875;SDS011;51369;49.862;9.908;2023-08-06T02:39:32;4.05;;;2.70;;
64875;SDS011;51369;49.862;9.908;2023-08-06T02:41:58;3.75;;;2.72;;
64875;SDS011;51369;49.862;9.908;2023-08-06T02:44:26;3.72;;;3.05;;
64875;SDS011;51369;49.862;9.908;2023-08-06T02:46:52;4.15;;;2.80;;
64875;SDS011;51369;49.862;9.908;2023-08-06T02:49:18;3.28;;;2.97;;
64875;SDS011;51369;49.862;9.908;2023-08-06T02:51:47;4.30;;;2.67;;
64875;SDS011;51369;49.862;9.908;2023-08-06T02:54:12;5.18;;;3.28;;
64875;SDS011;51369;49.862;9.908;2023-08-06T02:56:38;3.72;;;3.15;;
64875;SDS011;51369;49.862;9.908;2023-08-06T02:59:15;3.63;;;2.80;;
64875;SDS011;51369;49.862;9.908;2023-08-06T03:02:03;3.80;;;3.17;;
64875;SDS011;51369;49.862;9.908;2023-08-06T03:05:02;4.63;;;2.85;;
64875;SDS011;51369;49.862;9.908;2023-08-06T03:07:32;4.10;;;2.88;;
64875;SDS011;51369;49.862;9.908;2023-08-06T03:10:05;7.43;;;2.95;;
64875;SDS011;51369;49.862;9.908;2023-08-06T03:12:31;4.13;;;2.80;;
64875;SDS011;51369;49.862;9.908;2023-08-06T03:14:59;5.68;;;3.13;;
64875;SDS011;51369;49.862;9.908;2023-08-06T03:17:25;5.07;;;3.20;;
64875;SDS011;51369;49.862;9.908;2023-08-06T03:19:50;5.63;;;3.25;;
64875;SDS011;51369;49.862;9.908;2023-08-06T03:22:17;4.82;;;3.40;;
64875;SDS011;51369;49.862;9.908;2023-08-06T03:24:43;5.53;;;3.38;;
64875;SDS011;51369;49.862;9.908;2023-08-06T03:27:09;5.30;;;3.13;;
64875;SDS011;51369;49.862;9.908;2023-08-06T03:29:37;3.50;;;2.92;;
64875;SDS011;51369;49.862;9.908;2023-08-06T03:32:02;6.53;;;3.10;;
64875;SDS011;51369;49.862;9.908;2023-08-06T03:34:29;3.60;;;2.88;;
64875;SDS011;51369;49.862;9.908;2023-08-06T03:36:56;5.15;;;3.00;;
64875;SDS011;51369;49.862;9.908;2023-08-06T03:39:21;4.90;;;3.00;;
64875;SDS011;51369;49.862;9.908;2023-08-06T03:41:48;6.15;;;3.17;;
64875;SDS011;51369;49.862;9.908;2023-08-06T03:44:14;3.20;;;2.90;;
64875;SDS011;51369;49.862;9.908;2023-08-06T03:46:40;4.85;;;3.22;;
64875;SDS011;51369;49.862;9.908;2023-08-06T03:49:07;5.13;;;3.33;;
64875;SDS011;51369;49.862;9.908;2023-08-06T03:51:33;5.60;;;3.25;;
64875;SDS011;51369;49.862;9.908;2023-08-06T03:54:00;3.92;;;3.10;;
64875;SDS011;51369;49.862;9.908;2023-08-06T03:56:26;4.75;;;3.25;;
64875;SDS011;51369;49.862;9.908;2023-08-06T03:58:51;3.15;;;2.85;;
64875;SDS011;51369;49.862;9.908;2023-08-06T04:01:16;8.05;;;3.30;;
64875;SDS011;51369;49.862;9.908;2023-08-06T04:03:44;3.85;;;3.05;;
64875;SDS011;51369;49.862;9.908;2023-08-06T04:06:10;6.82;;;2.90;;
64875;SDS011;51369;49.862;9.908;2023-08-06T04:08:36;4.47;;;3.47;;
64875;SDS011;51369;49.862;9.908;2023-08-06T04:11:01;35.75;;;5.45;;
64875;SDS011;51369;49.862;9.908;2023-08-06T04:13:27;3.40;;;3.10;;
64875;SDS011;51369;49.862;9.908;2023-08-06T04:15:52;4.90;;;3.28;;
64875;SDS011;51369;49.862;9.908;2023-08-06T04:18:20;6.47;;;3.17;;
64875;SDS011;51369;49.862;9.908;2023-08-06T04:20:47;3.58;;;3.08;;
64875;SDS011;51369;49.862;9.908;2023-08-06T04:23:14;4.47;;;2.97;;
64875;SDS011;51369;49.862;9.908;2023-08-06T04:25:41;5.43;;;3.22;;
64875;SDS011;51369;49.862;9.908;2023-08-06T04:28:07;5.78;;;3.30;;
64875;SDS011;51369;49.862;9.908;2023-08-06T04:30:33;4.32;;;3.60;;
64875;SDS011;51369;49.862;9.908;2023-08-06T04:32:58;3.45;;;3.13;;
64875;SDS011;51369;49.862;9.908;2023-08-06T04:35:25;5.95;;;3.10;;
64875;SDS011;51369;49.862;9.908;2023-08-06T04:37:50;3.28;;;2.95;;
64875;SDS011;51369;49.862;9.908;2023-08-06T04:40:16;5.38;;;3.03;;
64875;SDS011;51369;49.862;9.908;2023-08-06T04:42:42;5.07;;;3.20;;
64875;SDS011;51369;49.862;9.908;2023-08-06T04:45:08;4.57;;;3.15;;
64875;SDS011;51369;49.862;9.908;2023-08-06T04:47:33;4.40;;;3.45;;
64875;SDS011;51369;49.862;9.908;2023-08-06T04:50:00;7.28;;;3.30;;
64875;SDS011;51369;49.862;9.908;2023-08-06T04:52:25;7.03;;;3.35;;
64875;SDS011;51369;49.862;9.908;2023-08-06T04:54:53;5.22;;;3.83;;
64875;SDS011;51369;49.862;9.908;2023-08-06T04:57:21;17.77;;;3.63;;
64875;SDS011;51369;49.862;9.908;2023-08-06T04:59:47;4.05;;;3.50;;
64875;SDS011;51369;49.862;9.908;2023-08-06T05:02:12;3.75;;;3.38;;
64875;SDS011;51369;49.862;9.908;2023-08-06T05:04:38;4.07;;;3.53;;
64875;SDS011;51369;49.862;9.908;2023-08-06T05:07:03;4.38;;;3.70;;
64875;SDS011;51369;49.862;9.908;2023-08-06T05:09:30;3.72;;;3.30;;
64875;SDS011;51369;49.862;9.908;2023-08-06T05:11:56;8.95;;;3.15;;
64875;SDS011;51369;49.862;9.908;2023-08-06T05:14:21;7.72;;;3.50;;
64875;SDS011;51369;49.862;9.908;2023-08-06T05:16:46;5.28;;;3.13;;
64875;SDS011;51369;49.862;9.908;2023-08-06T05:19:12;4.25;;;3.05;;
64875;SDS011;51369;49.862;9.908;2023-08-06T05:21:37;7.65;;;3.88;;
64875;SDS011;51369;49.862;9.908;2023-08-06T05:24:03;6.10;;;3.63;;
64875;SDS011;51369;49.862;9.908;2023-08-06T05:26:28;4.03;;;3.03;;
64875;SDS011;51369;49.862;9.908;2023-08-06T05:28:54;5.40;;;3.10;;
64875;SDS011;51369;49.862;9.908;2023-08-06T05:31:19;6.07;;;3.38;;
64875;SDS011;51369;49.862;9.908;2023-08-06T05:33:44;4.15;;;3.20;;
64875;SDS011;51369;49.862;9.908;2023-08-06T05:36:10;5.75;;;3.15;;
64875;SDS011;51369;49.862;9.908;2023-08-06T05:38:36;3.70;;;2.97;;
64875;SDS011;51369;49.862;9.908;2023-08-06T05:41:01;4.88;;;3.28;;
64875;SDS011;51369;49.862;9.908;2023-08-06T05:43:27;4.68;;;3.20;;
64875;SDS011;51369;49.862;9.908;2023-08-06T05:45:52;4.38;;;3.13;;
64875;SDS011;51369;49.862;9.908;2023-08-06T05:48:17;5.20;;;2.97;;
64875;SDS011;51369;49.862;9.908;2023-08-06T05:50:43;4.28;;;2.97;;
64875;SDS011;51369;49.862;9.908;2023-08-06T05:53:09;7.72;;;3.20;;
64875;SDS011;51369;49.862;9.908;2023-08-06T05:55:34;5.10;;;3.55;;
64875;SDS011;51369;49.862;9.908;2023-08-06T05:58:00;4.07;;;3.10;;
64875;SDS011;51369;49.862;9.908;2023-08-06T06:00:26;6.03;;;2.95;;
64875;SDS011;51369;49.862;9.908;2023-08-06T06:02:52;5.47;;;3.60;;
64875;SDS011;51369;49.862;9.908;2023-08-06T06:05:17;7.40;;;3.08;;
64875;SDS011;51369;49.862;9.908;2023-08-06T06:07:42;5.47;;;3.45;;
64875;SDS011;51369;49.862;9.908;2023-08-06T06:10:08;10.20;;;3.55;;
64875;SDS011;51369;49.862;9.908;2023-08-06T06:12:34;3.67;;;3.05;;
64875;SDS011;51369;49.862;9.908;2023-08-06T06:15:00;5.10;;;2.88;;
64875;SDS011;51369;49.862;9.908;2023-08-06T06:17:26;8.18;;;3.75;;
64875;SDS011;51369;49.862;9.908;2023-08-06T06:19:52;4.35;;;2.75;;
64875;SDS011;51369;49.862;9.908;2023-08-06T06:22:17;6.25;;;3.10;;
64875;SDS011;51369;49.862;9.908;2023-08-06T06:24:43;5.45;;;3.03;;
64875;SDS011;51369;49.862;9.908;2023-08-06T06:27:09;6.30;;;2.92;;
64875;SDS011;51369;49.862;9.908;2023-08-06T06:29:34;7.55;;;3.00;;
64875;SDS011;51369;49.862;9.908;2023-08-06T06:32:00;6.13;;;2.67;;
64875;SDS011;51369;49.862;9.908;2023-08-06T06:34:25;4.88;;;2.50;;
64875;SDS011;51369;49.862;9.908;2023-08-06T06:36:50;7.43;;;3.10;;
64875;SDS011;51369;49.862;9.908;2023-08-06T06:39:17;9.77;;;3.15;;
64875;SDS011;51369;49.862;9.908;2023-08-06T06:41:42;3.08;;;2.20;;
64875;SDS011;51369;49.862;9.908;2023-08-06T06:44:17;5.78;;;2.28;;
64875;SDS011;51369;49.862;9.908;2023-08-06T06:46:44;5.47;;;2.22;;
64875;SDS011;51369;49.862;9.908;2023-08-06T06:49:10;7.75;;;2.70;;
64875;SDS011;51369;49.862;9.908;2023-08-06T06:51:35;4.57;;;2.42;;
64875;SDS011;51369;49.862;9.908;2023-08-06T06:54:01;2.20;;;2.00;;
64875;SDS011;51369;49.862;9.908;2023-08-06T06:56:26;6.38;;;2.17;;
64875;SDS011;51369;49.862;9.908;2023-08-06T06:58:51;5.07;;;2.22;;
64875;SDS011;51369;49.862;9.908;2023-08-06T07:01:17;4.28;;;1.90;;
64875;SDS011;51369;49.862;9.908;2023-08-06T07:03:42;4.07;;;1.90;;
64875;SDS011;51369;49.862;9.908;2023-08-06T07:06:07;5.20;;;2.30;;
64875;SDS011;51369;49.862;9.908;2023-08-06T07:08:33;5.18;;;2.08;;
64875;SDS011;51369;49.862;9.908;2023-08-06T07:11:05;4.15;;;1.80;;
64875;SDS011;51369;49.862;9.908;2023-08-06T07:13:32;3.97;;;1.83;;
64875;SDS011;51369;49.862;9.908;2023-08-06T07:15:58;2.55;;;1.83;;
64875;SDS011;51369;49.862;9.908;2023-08-06T07:18:23;2.78;;;1.85;;
64875;SDS011;51369;49.862;9.908;2023-08-06T07:20:49;4.40;;;1.70;;
64875;SDS011;51369;49.862;9.908;2023-08-06T07:23:16;3.63;;;2.47;;
64875;SDS011;51369;49.862;9.908;2023-08-06T07:25:41;2.53;;;1.65;;
64875;SDS011;51369;49.862;9.908;2023-08-06T07:28:07;1.58;;;1.45;;
64875;SDS011;51369;49.862;9.908;2023-08-06T07:30:33;2.20;;;1.45;;
64875;SDS011;51369;49.862;9.908;2023-08-06T07:32:58;2.50;;;1.65;;
64875;SDS011;51369;49.862;9.908;2023-08-06T07:35:24;2.58;;;1.50;;
64875;SDS011;51369;49.862;9.908;2023-08-06T07:37:49;1.95;;;1.48;;
64875;SDS011;51369;49.862;9.908;2023-08-06T07:40:14;3.42;;;1.55;;
64875;SDS011;51369;49.862;9.908;2023-08-06T07:42:40;2.30;;;1.50;;
64875;SDS011;51369;49.862;9.908;2023-08-06T07:45:06;3.58;;;1.45;;
64875;SDS011;51369;49.862;9.908;2023-08-06T07:47:32;1.80;;;1.42;;
64875;SDS011;51369;49.862;9.908;2023-08-06T07:49:57;1.33;;;1.20;;
64875;SDS011;51369;49.862;9.908;2023-08-06T07:52:23;4.03;;;1.10;;
64875;SDS011;51369;49.862;9.908;2023-08-06T07:54:48;2.13;;;1.00;;
64875;SDS011;51369;49.862;9.908;2023-08-06T07:57:14;2.28;;;0.93;;
64875;SDS011;51369;49.862;9.908;2023-08-06T07:59:41;1.52;;;1.00;;
64875;SDS011;51369;49.862;9.908;2023-08-06T08:02:06;1.73;;;1.20;;
64875;SDS011;51369;49.862;9.908;2023-08-06T08:04:31;1.52;;;0.90;;
64875;SDS011;51369;49.862;9.908;2023-08-06T08:06:57;2.50;;;1.10;;
64875;SDS011;51369;49.862;9.908;2023-08-06T08:09:22;1.10;;;1.00;;
64875;SDS011;51369;49.862;9.908;2023-08-06T08:11:48;1.65;;;1.08;;
64875;SDS011;51369;49.862;9.908;2023-08-06T08:14:14;2.85;;;1.20;;
64875;SDS011;51369;49.862;9.908;2023-08-06T08:16:39;4.35;;;1.20;;
64875;SDS011;51369;49.862;9.908;2023-08-06T08:19:04;2.35;;;1.33;;
64875;SDS011;51369;49.862;9.908;2023-08-06T08:21:30;2.85;;;0.95;;
64875;SDS011;51369;49.862;9.908;2023-08-06T08:23:55;2.70;;;1.27;;
64875;SDS011;51369;49.862;9.908;2023-08-06T08:26:20;3.92;;;0.90;;
64875;SDS011;51369;49.862;9.908;2023-08-06T08:28:46;0.98;;;0.85;;
64875;SDS011;51369;49.862;9.908;2023-08-06T08:31:11;1.02;;;0.73;;
64875;SDS011;51369;49.862;9.908;2023-08-06T08:33:40;3.38;;;1.00;;
64875;SDS011;51369;49.862;9.908;2023-08-06T08:36:05;1.58;;;1.27;;
64875;SDS011;51369;49.862;9.908;2023-08-06T08:38:31;0.85;;;0.73;;
64875;SDS011;51369;49.862;9.908;2023-08-06T08:40:56;0.63;;;0.63;;
64875;SDS011;51369;49.862;9.908;2023-08-06T08:43:22;5.88;;;0.90;;
64875;SDS011;51369;49.862;9.908;2023-08-06T08:45:52;1.83;;;0.82;;
64875;SDS011;51369;49.862;9.908;2023-08-06T08:48:23;0.57;;;0.57;;
64875;SDS011;51369;49.862;9.908;2023-08-06T08:50:49;1.60;;;1.38;;
64875;SDS011;51369;49.862;9.908;2023-08-06T08:53:15;1.48;;;1.33;;
64875;SDS011;51369;49.862;9.908;2023-08-06T08:55:46;1.38;;;0.80;;
64875;SDS011;51369;49.862;9.908;2023-08-06T08:58:14;1.15;;;0.80;;
64875;SDS011;51369;49.862;9.908;2023-08-06T09:00:41;2.95;;;0.73;;
64875;SDS011;51369;49.862;9.908;2023-08-06T09:03:07;8.23;;;0.65;;
64875;SDS011;51369;49.862;9.908;2023-08-06T09:05:32;1.67;;;0.90;;
64875;SDS011;51369;49.862;9.908;2023-08-06T09:08:02;0.60;;;0.60;;
64875;SDS011;51369;49.862;9.908;2023-08-06T09:10:29;0.30;;;0.30;;
64875;SDS011;51369;49.862;9.908;2023-08-06T09:12:55;0.40;;;0.40;;
64875;SDS011;51369;49.862;9.908;2023-08-06T09:15:25;2.75;;;0.50;;
64875;SDS011;51369;49.862;9.908;2023-08-06T09:17:54;0.50;;;0.50;;
64875;SDS011;51369;49.862;9.908;2023-08-06T09:20:20;2.20;;;1.98;;
64875;SDS011;51369;49.862;9.908;2023-08-06T09:22:45;2.35;;;2.15;;
64875;SDS011;51369;49.862;9.908;2023-08-06T09:25:13;4.50;;;0.55;;
64875;SDS011;51369;49.862;9.908;2023-08-06T09:27:47;0.60;;;0.55;;
64875;SDS011;51369;49.862;9.908;2023-08-06T09:30:12;0.40;;;0.40;;
64875;SDS011;51369;49.862;9.908;2023-08-06T09:32:55;0.40;;;0.40;;
64875;SDS011;51369;49.862;9.908;2023-08-06T09:35:21;5.05;;;0.50;;
64875;SDS011;51369;49.862;9.908;2023-08-06T09:37:46;0.50;;;0.50;;
64875;SDS011;51369;49.862;9.908;2023-08-06T09:40:31;2.22;;;1.65;;
64875;SDS011;51369;49.862;9.908;2023-08-06T09:42:57;3.20;;;0.80;;
64875;SDS011;51369;49.862;9.908;2023-08-06T09:45:24;0.95;;;0.73;;
64875;SDS011;51369;49.862;9.908;2023-08-06T09:50:21;0.73;;;0.50;;
64875;SDS011;51369;49.862;9.908;2023-08-06T09:52:46;1.85;;;0.57;;
64875;SDS011;51369;49.862;9.908;2023-08-06T09:55:13;0.75;;;0.43;;
64875;SDS011;51369;49.862;9.908;2023-08-06T09:57:40;2.50;;;1.08;;
64875;SDS011;51369;49.862;9.908;2023-08-06T10:00:07;1.02;;;0.50;;
64875;SDS011;51369;49.862;9.908;2023-08-06T10:02:38;3.08;;;0.43;;
64875;SDS011;51369;49.862;9.908;2023-08-06T10:05:05;1.58;;;0.50;;
64875;SDS011;51369;49.862;9.908;2023-08-06T10:07:31;0.55;;;0.55;;
64875;SDS011;51369;49.862;9.908;2023-08-06T10:09:58;0.30;;;0.30;;
64875;SDS011;51369;49.862;9.908;2023-08-06T10:12:24;0.32;;;0.32;;
64875;SDS011;51369;49.862;9.908;2023-08-06T10:14:51;0.47;;;0.47;;
64875;SDS011;51369;49.862;9.908;2023-08-06T10:17:22;0.47;;;0.47;;
64875;SDS011;51369;49.862;9.908;2023-08-06T10:19:49;0.95;;;0.43;;
64875;SDS011;51369;49.862;9.908;2023-08-06T10:22:16;0.40;;;0.40;;
64875;SDS011;51369;49.862;9.908;2023-08-06T10:24:52;0.40;;;0.40;;
64875;SDS011;51369;49.862;9.908;2023-08-06T10:27:22;0.80;;;0.60;;
64875;SDS011;51369;49.862;9.908;2023-08-06T10:32:57;0.43;;;0.43;;
64875;SDS011;51369;49.862;9.908;2023-08-06T10:35:34;0.47;;;0.47;;
64875;SDS011;51369;49.862;9.908;2023-08-06T10:40:35;0.65;;;0.57;;
64875;SDS011;51369;49.862;9.908;2023-08-06T10:43:02;0.85;;;0.52;;
64875;SDS011;51369;49.862;9.908;2023-08-06T10:45:29;1.10;;;0.57;;
64875;SDS011;51369;49.862;9.908;2023-08-06T10:47:56;0.70;;;0.70;;
64875;SDS011;51369;49.862;9.908;2023-08-06T10:50:22;0.73;;;0.70;;
64875;SDS011;51369;49.862;9.908;2023-08-06T10:52:48;0.93;;;0.70;;
64875;SDS011;51369;49.862;9.908;2023-08-06T10:55:14;0.60;;;0.60;;
64875;SDS011;51369;49.862;9.908;2023-08-06T10:57:46;4.90;;;0.82;;
64875;SDS011;51369;49.862;9.908;2023-08-06T11:00:12;0.55;;;0.55;;
64875;SDS011;51369;49.862;9.908;2023-08-06T11:02:38;2.15;;;0.60;;
64875;SDS011;51369;49.862;9.908;2023-08-06T11:05:08;1.02;;;0.73;;
64875;SDS011;51369;49.862;9.908;2023-08-06T11:07:34;2.45;;;0.70;;
64875;SDS011;51369;49.862;9.908;2023-08-06T11:10:02;0.93;;;0.60;;
64875;SDS011;51369;49.862;9.908;2023-08-06T11:12:28;0.55;;;0.55;;
64875;SDS011;51369;49.862;9.908;2023-08-06T11:14:53;2.90;;;0.80;;
64875;SDS011;51369;49.862;9.908;2023-08-06T11:17:19;2.22;;;0.60;;
64875;SDS011;51369;49.862;9.908;2023-08-06T11:19:44;2.53;;;0.63;;
64875;SDS011;51369;49.862;9.908;2023-08-06T11:22:10;0.80;;;0.57;;
64875;SDS011;51369;49.862;9.908;2023-08-06T11:24:37;0.50;;;0.50;;
64875;SDS011;51369;49.862;9.908;2023-08-06T11:27:06;0.45;;;0.45;;
64875;SDS011;51369;49.862;9.908;2023-08-06T11:29:40;1.25;;;0.50;;
64875;SDS011;51369;49.862;9.908;2023-08-06T11:32:10;4.38;;;0.50;;
64875;SDS011;51369;49.862;9.908;2023-08-06T11:34:36;1.77;;;0.40;;
64875;SDS011;51369;49.862;9.908;2023-08-06T11:37:03;0.85;;;0.52;;
64875;SDS011;51369;49.862;9.908;2023-08-06T11:39:35;0.63;;;0.63;;
64875;SDS011;51369;49.862;9.908;2023-08-06T11:42:05;0.85;;;0.85;;
64875;SDS011;51369;49.862;9.908;2023-08-06T11:44:32;0.73;;;0.50;;
64875;SDS011;51369;49.862;9.908;2023-08-06T11:47:00;0.52;;;0.52;;
64875;SDS011;51369;49.862;9.908;2023-08-06T11:52:23;0.55;;;0.55;;
64875;SDS011;51369;49.862;9.908;2023-08-06T11:55:05;0.47;;;0.47;;
64875;SDS011;51369;49.862;9.908;2023-08-06T11:57:33;0.70;;;0.45;;
64875;SDS011;51369;49.862;9.908;2023-08-06T12:00:04;0.68;;;0.68;;
64875;SDS011;51369;49.862;9.908;2023-08-06T12:02:44;2.10;;;0.45;;
64875;SDS011;51369;49.862;9.908;2023-08-06T12:05:10;0.43;;;0.40;;
64875;SDS011;51369;49.862;9.908;2023-08-06T12:07:47;0.50;;;0.50;;
64875;SDS011;51369;49.862;9.908;2023-08-06T12:10:14;0.60;;;0.60;;
64875;SDS011;51369;49.862;9.908;2023-08-06T12:12:41;0.70;;;0.50;;
64875;SDS011;51369;49.862;9.908;2023-08-06T12:15:07;0.88;;;0.60;;
64875;SDS011;51369;49.862;9.908;2023-08-06T12:17:35;0.75;;;0.50;;
64875;SDS011;51369;49.862;9.908;2023-08-06T12:20:01;0.40;;;0.40;;
64875;SDS011;51369;49.862;9.908;2023-08-06T12:22:29;0.47;;;0.47;;
64875;SDS011;51369;49.862;9.908;2023-08-06T12:24:59;0.45;;;0.40;;
64875;SDS011;51369;49.862;9.908;2023-08-06T12:27:26;0.73;;;0.60;;
64875;SDS011;51369;49.862;9.908;2023-08-06T12:29:51;0.40;;;0.40;;
64875;SDS011;51369;49.862;9.908;2023-08-06T12:32:17;0.88;;;0.50;;
64875;SDS011;51369;49.862;9.908;2023-08-06T12:34:42;0.73;;;0.40;;
64875;SDS011;51369;49.862;9.908;2023-08-06T12:37:08;2.17;;;0.57;;
64875;SDS011;51369;49.862;9.908;2023-08-06T12:39:36;0.75;;;0.43;;
64875;SDS011;51369;49.862;9.908;2023-08-06T12:42:03;0.93;;;0.75;;
64875;SDS011;51369;49.862;9.908;2023-08-06T12:44:29;1.88;;;0.52;;
64875;SDS011;51369;49.862;9.908;2023-08-06T12:46:55;1.52;;;0.50;;
64875;SDS011;51369;49.862;9.908;2023-08-06T12:49:21;0.70;;;0.40;;
64875;SDS011;51369;49.862;9.908;2023-08-06T12:51:47;0.75;;;0.50;;
64875;SDS011;51369;49.862;9.908;2023-08-06T12:54:13;0.40;;;0.40;;
64875;SDS011;51369;49.862;9.908;2023-08-06T12:56:39;1.13;;;0.40;;
64875;SDS011;51369;49.862;9.908;2023-08-06T12:59:04;2.28;;;0.43;;
64875;SDS011;51369;49.862;9.908;2023-08-06T13:01:29;0.45;;;0.43;;
64875;SDS011;51369;49.862;9.908;2023-08-06T13:03:54;1.35;;;0.60;;
64875;SDS011;51369;49.862;9.908;2023-08-06T13:06:20;0.40;;;0.40;;
64875;SDS011;51369;49.862;9.908;2023-08-06T13:08:45;1.25;;;0.60;;
64875;SDS011;51369;49.862;9.908;2023-08-06T13:11:10;4.97;;;0.93;;
64875;SDS011;51369;49.862;9.908;2023-08-06T13:13:36;0.77;;;0.30;;
64875;SDS011;51369;49.862;9.908;2023-08-06T13:16:02;2.08;;;0.40;;
64875;SDS011;51369;49.862;9.908;2023-08-06T13:18:27;0.60;;;0.30;;
64875;SDS011;51369;49.862;9.908;2023-08-06T13:20:54;0.68;;;0.40;;
64875;SDS011;51369;49.862;9.908;2023-08-06T13:23:20;0.82;;;0.50;;
64875;SDS011;51369;49.862;9.908;2023-08-06T13:25:45;0.50;;;0.50;;
64875;SDS011;51369;49.862;9.908;2023-08-06T13:28:11;1.38;;;0.63;;
64875;SDS011;51369;49.862;9.908;2023-08-06T13:30:36;3.25;;;1.55;;
64875;SDS011;51369;49.862;9.908;2023-08-06T13:33:07;0.35;;;0.30;;
64875;SDS011;51369;49.862;9.908;2023-08-06T13:35:33;0.35;;;0.35;;
64875;SDS011;51369;49.862;9.908;2023-08-06T13:37:58;1.27;;;0.43;;
64875;SDS011;51369;49.862;9.908;2023-08-06T13:40:23;1.38;;;0.35;;
64875;SDS011;51369;49.862;9.908;2023-08-06T13:42:49;3.83;;;0.28;;
64875;SDS011;51369;49.862;9.908;2023-08-06T13:45:14;2.83;;;0.50;;
64875;SDS011;51369;49.862;9.908;2023-08-06T13:47:39;0.90;;;0.40;;
64875;SDS011;51369;49.862;9.908;2023-08-06T13:50:06;4.22;;;0.35;;
64875;SDS011;51369;49.862;9.908;2023-08-06T13:52:31;2.97;;;0.50;;
64875;SDS011;51369;49.862;9.908;2023-08-06T13:54:56;0.65;;;0.50;;
64875;SDS011;51369;49.862;9.908;2023-08-06T13:57:22;0.30;;;0.30;;
64875;SDS011;51369;49.862;9.908;2023-08-06T13:59:47;2.65;;;0.50;;
64875;SDS011;51369;49.862;9.908;2023-08-06T14:02:12;2.50;;;0.47;;
64875;SDS011;51369;49.862;9.908;2023-08-06T14:04:38;0.60;;;0.60;;
64875;SDS011;51369;49.862;9.908;2023-08-06T14:07:05;3.50;;;0.40;;
64875;SDS011;51369;49.862;9.908;2023-08-06T14:09:30;0.38;;;0.38;;
64875;SDS011;51369;49.862;9.908;2023-08-06T14:11:56;0.88;;;0.75;;
64875;SDS011;51369;49.862;9.908;2023-08-06T14:14:21;1.88;;;0.88;;
64875;SDS011;51369;49.862;9.908;2023-08-06T14:16:51;0.43;;;0.43;;
64875;SDS011;51369;49.862;9.908;2023-08-06T14:19:17;0.40;;;0.40;;
64875;SDS011;51369;49.862;9.908;2023-08-06T14:21:43;3.10;;;0.68;;
64875;SDS011;51369;49.862;9.908;2023-08-06T14:24:08;0.45;;;0.45;;
64875;SDS011;51369;49.862;9.908;2023-08-06T14:26:33;0.50;;;0.50;;
64875;SDS011;51369;49.862;9.908;2023-08-06T14:29:00;0.40;;;0.40;;
64875;SDS011;51369;49.862;9.908;2023-08-06T14:31:26;1.85;;;0.35;;
64875;SDS011;51369;49.862;9.908;2023-08-06T14:33:51;0.65;;;0.40;;
64875;SDS011;51369;49.862;9.908;2023-08-06T14:36:16;1.23;;;0.50;;
64875;SDS011;51369;49.862;9.908;2023-08-06T14:38:42;0.43;;;0.43;;
64875;SDS011;51369;49.862;9.908;2023-08-06T14:41:07;0.50;;;0.43;;
64875;SDS011;51369;49.862;9.908;2023-08-06T14:43:32;0.70;;;0.60;;
64875;SDS011;51369;49.862;9.908;2023-08-06T14:45:58;1.02;;;0.60;;
64875;SDS011;51369;49.862;9.908;2023-08-06T14:48:23;0.98;;;0.98;;
64875;SDS011;51369;49.862;9.908;2023-08-06T14:50:48;3.90;;;0.60;;
64875;SDS011;51369;49.862;9.908;2023-08-06T14:53:14;0.68;;;0.57;;
64875;SDS011;51369;49.862;9.908;2023-08-06T14:55:39;0.60;;;0.60;;
64875;SDS011;51369;49.862;9.908;2023-08-06T14:58:07;1.27;;;0.93;;
64875;SDS011;51369;49.862;9.908;2023-08-06T15:00:32;1.52;;;0.57;;
64875;SDS011;51369;49.862;9.908;2023-08-06T15:02:57;0.60;;;0.50;;